createdAt,value
2022-08-27T00:00:17.150Z,101358.47
2022-08-27T00:02:44.257Z,101358.66
2022-08-27T00:05:13.578Z,101360.69
2022-08-27T00:07:40.956Z,101358.38
2022-08-27T00:10:11.135Z,101354.84
2022-08-27T00:12:38.805Z,101348.53
2022-08-27T00:15:06.570Z,101352.81
2022-08-27T00:17:36.181Z,101352.63
2022-08-27T00:20:04.517Z,101345.31
2022-08-27T00:22:31.204Z,101358.66
2022-08-27T00:24:57.948Z,101358.66
2022-08-27T00:27:24.631Z,101354.06
2022-08-27T00:29:51.441Z,101358.47
2022-08-27T00:32:18.497Z,101357.53
2022-08-27T00:34:45.399Z,101359.25
2022-08-27T00:37:12.258Z,101356.53
2022-08-27T00:39:39.298Z,101362.78
2022-08-27T00:42:10.758Z,101348.34
2022-08-27T00:44:40.491Z,101351.84
2022-08-27T00:47:12.540Z,101359.81
2022-08-27T00:49:49.295Z,101349.06
2022-08-27T00:52:32.803Z,101356.84
2022-08-27T00:55:04.647Z,101357.72
2022-08-27T00:57:31.669Z,101368.47
2022-08-27T00:59:58.346Z,101362.22
2022-08-27T01:02:32.364Z,101353.06
2022-08-27T01:05:12.321Z,101354.69
2022-08-27T01:07:41.888Z,101348.25
2022-08-27T01:10:12.727Z,101350.94
2022-08-27T01:12:39.807Z,101355.28
2022-08-27T01:15:10.135Z,101360.53
2022-08-27T01:17:51.852Z,101355.16
2022-08-27T01:20:30.091Z,101353.25
2022-08-27T01:23:07.539Z,101355.94
2022-08-27T01:25:43.514Z,101349.38
2022-08-27T01:28:11.991Z,101352.72
2022-08-27T01:30:40.255Z,101351.66
2022-08-27T01:33:17.628Z,101350.69
2022-08-27T01:35:48.705Z,101347.22
2022-08-27T01:38:30.302Z,101344.53
2022-08-27T01:40:59.518Z,101341.09
2022-08-27T01:43:32.486Z,101334.72
2022-08-27T01:45:59.317Z,101349.19
2022-08-27T01:48:26.057Z,101344.84
2022-08-27T01:50:55.926Z,101337.63
2022-08-27T01:53:26.182Z,101331.28
2022-08-27T01:55:57.243Z,101333.97
2022-08-27T01:58:28.579Z,101332.25
2022-08-27T02:01:11.443Z,101330.63
2022-08-27T02:03:40.330Z,101326.13
2022-08-27T02:06:11.931Z,101328.03
2022-08-27T02:08:39.542Z,101329.75
2022-08-27T02:11:08.410Z,101321.78
2022-08-27T02:13:35.800Z,101331.38
2022-08-27T02:16:02.753Z,101327.84
2022-08-27T02:18:29.513Z,101320.72
2022-08-27T02:20:56.219Z,101323.44
2022-08-27T02:23:23.078Z,101323.44
2022-08-27T02:25:50.131Z,101320.81
2022-08-27T02:28:22.868Z,101322.44
2022-08-27T02:31:01.057Z,101318.13
2022-08-27T02:33:28.057Z,101311.03
2022-08-27T02:35:55.134Z,101313.59
2022-08-27T02:38:21.825Z,101318.13
2022-08-27T02:40:51.590Z,101314.56
2022-08-27T02:43:25.138Z,101312.94
2022-08-27T02:45:55.378Z,101304.78
2022-08-27T02:48:25.850Z,101309.19
2022-08-27T02:50:52.685Z,101310.16
2022-08-27T02:53:19.639Z,101303.03
2022-08-27T02:55:46.630Z,101294.88
2022-08-27T02:58:16.818Z,101288.50
2022-08-27T03:00:45.157Z,101291.84
2022-08-27T03:03:12.945Z,101295.31
2022-08-27T03:05:52.708Z,101283.50
2022-08-27T03:08:19.326Z,101287.78
2022-08-27T03:10:45.959Z,101285.94
2022-08-27T03:13:12.706Z,101282.41
2022-08-27T03:15:42.447Z,101282.31
2022-08-27T03:18:19.424Z,101288.88
2022-08-27T03:20:55.108Z,101298.22
2022-08-27T03:23:29.063Z,101299.19
2022-08-27T03:25:59.010Z,101289.28
2022-08-27T03:28:30.009Z,101291.84
2022-08-27T03:31:00.554Z,101290.69
2022-08-27T03:33:31.344Z,101288.75
2022-08-27T03:36:01.583Z,101291.25
2022-08-27T03:38:28.201Z,101291.13
2022-08-27T03:40:55.638Z,101291.91
2022-08-27T03:43:23.203Z,101287.16
2022-08-27T03:46:01.662Z,101278.09
2022-08-27T03:48:31.082Z,101283.28
2022-08-27T03:50:57.781Z,101282.44
2022-08-27T03:53:24.878Z,101283.09
2022-08-27T03:55:51.592Z,101279.41
2022-08-27T03:58:18.362Z,101283.84
2022-08-27T04:00:45.050Z,101281.16
2022-08-27T04:03:15.179Z,101275.66
2022-08-27T04:05:45.350Z,101280.19
2022-08-27T04:08:13.482Z,101272.88
2022-08-27T04:10:43.399Z,101277.38
2022-08-27T04:13:10.190Z,101279.13
2022-08-27T04:15:40.557Z,101274.59
2022-08-27T04:18:07.898Z,101272.75
2022-08-27T04:20:35.992Z,101284.38
2022-08-27T04:23:03.989Z,101273.59
2022-08-27T04:25:30.838Z,101275.22
2022-08-27T04:27:58.223Z,101280.50
2022-08-27T04:30:25.173Z,101266.09
2022-08-27T04:32:51.825Z,101268.78
2022-08-27T04:35:18.567Z,101257.03
2022-08-27T04:37:45.201Z,101256.16
2022-08-27T04:40:12.218Z,101257.88
2022-08-27T04:42:38.987Z,101262.41
2022-08-27T04:45:06.107Z,101260.50
2022-08-27T04:47:33.271Z,101262.19
2022-08-27T04:50:00.011Z,101260.38
2022-08-27T04:52:26.823Z,101261.22
2022-08-27T04:54:53.793Z,101255.63
2022-08-27T04:57:21.072Z,101262.00
2022-08-27T04:59:47.836Z,101255.50
2022-08-27T05:02:14.630Z,101250.25
2022-08-27T05:04:42.685Z,101259.81
2022-08-27T05:07:10.658Z,101258.88
2022-08-27T05:09:37.859Z,101245.16
2022-08-27T05:12:11.123Z,101244.94
2022-08-27T05:14:38.454Z,101247.44
2022-08-27T05:17:05.170Z,101241.81
2022-08-27T05:19:32.197Z,101239.81
2022-08-27T05:21:58.862Z,101236.78
2022-08-27T05:24:25.627Z,101235.59
2022-08-27T05:26:53.104Z,101235.13
2022-08-27T05:29:22.409Z,101234.69
2022-08-27T05:31:49.283Z,101229.00
2022-08-27T05:34:18.915Z,101229.63
2022-08-27T05:36:53.286Z,101234.56
2022-08-27T05:39:20.028Z,101235.97
2022-08-27T05:41:46.846Z,101230.34
2022-08-27T05:47:02.852Z,101224.59
2022-08-27T05:49:29.494Z,101228.06
2022-08-27T05:51:56.134Z,101231.53
2022-08-27T05:54:22.914Z,101228.56
2022-08-27T05:56:50.171Z,101226.50
2022-08-27T05:59:36.188Z,101226.19
2022-08-27T06:02:04.312Z,101219.56
2022-08-27T06:04:30.990Z,101228.44
2022-08-27T06:06:57.753Z,101230.78
2022-08-27T06:09:28.936Z,101228.72
2022-08-27T06:11:57.983Z,101237.47
2022-08-27T06:14:26.526Z,101227.44
2022-08-27T06:16:53.572Z,101228.06
2022-08-27T06:19:20.645Z,101224.03
2022-08-27T06:22:00.873Z,101233.72
2022-08-27T06:24:34.563Z,101218.28
2022-08-27T06:27:01.184Z,101226.03
2022-08-27T06:29:28.026Z,101222.25
2022-08-27T06:31:56.416Z,101215.63
2022-08-27T06:34:23.178Z,101218.97
2022-08-27T06:36:49.958Z,101215.03
2022-08-27T06:39:17.082Z,101214.81
2022-08-27T06:41:44.453Z,101208.56
2022-08-27T06:44:12.442Z,101209.19
2022-08-27T06:46:39.668Z,101213.59
2022-08-27T06:49:07.406Z,101210.88
2022-08-27T06:51:36.615Z,101210.66
2022-08-27T06:54:06.594Z,101211.50
2022-08-27T06:56:34.422Z,101211.28
2022-08-27T06:59:03.247Z,101211.19
2022-08-27T07:01:34.869Z,101211.91
2022-08-27T07:04:05.678Z,101207.34
2022-08-27T07:06:33.574Z,101211.78
2022-08-27T07:09:01.126Z,101217.06
2022-08-27T07:11:31.902Z,101212.53
2022-08-27T07:13:59.597Z,101209.59
2022-08-27T07:16:28.373Z,101216.72
2022-08-27T07:19:04.056Z,101212.91
2022-08-27T07:21:35.934Z,101220.91
2022-08-27T07:24:05.489Z,101227.78
2022-08-27T07:26:34.815Z,101227.56
2022-08-27T07:29:02.186Z,101234.44
2022-08-27T07:31:29.051Z,101231.41
2022-08-27T07:33:55.710Z,101231.16
2022-08-27T07:36:22.964Z,101217.53
2022-08-27T07:38:52.786Z,101222.72
2022-08-27T07:41:31.010Z,101219.88
2022-08-27T07:44:19.606Z,101224.41
2022-08-27T07:46:48.968Z,101216.06
2022-08-27T07:49:17.809Z,101214.00
2022-08-27T07:52:01.764Z,101214.59
2022-08-27T07:54:28.627Z,101216.06
2022-08-27T07:57:00.987Z,101207.59
2022-08-27T07:59:28.066Z,101207.09
2022-08-27T08:01:56.181Z,101203.16
2022-08-27T08:04:26.709Z,101206.47
2022-08-27T08:06:55.214Z,101201.81
2022-08-27T08:09:24.093Z,101208.94
2022-08-27T08:11:51.921Z,101205.38
2022-08-27T08:14:19.686Z,101214.09
2022-08-27T08:16:46.629Z,101209.56
2022-08-27T08:19:13.331Z,101220.97
2022-08-27T08:21:40.165Z,101228.00
2022-08-27T08:24:07.035Z,101225.19
2022-08-27T08:26:34.163Z,101219.78
2022-08-27T08:29:04.558Z,101223.44
2022-08-27T08:31:31.172Z,101229.00
2022-08-27T08:33:57.959Z,101229.22
2022-08-27T08:36:24.957Z,101226.53
2022-08-27T08:38:51.671Z,101226.66
2022-08-27T08:41:36.592Z,101221.25
2022-08-27T08:44:16.956Z,101217.81
2022-08-27T08:46:56.843Z,101220.38
2022-08-27T08:49:42.304Z,101218.56
2022-08-27T08:52:30.982Z,101228.38
2022-08-27T08:55:10.939Z,101222.13
2022-08-27T08:57:47.587Z,101230.09
2022-08-27T09:00:15.200Z,101230.09
2022-08-27T09:02:50.621Z,101230.09
2022-08-27T09:05:47.376Z,101220.97
2022-08-27T09:08:41.822Z,101229.69
2022-08-27T09:11:20.373Z,101211.13
2022-08-27T09:13:55.794Z,101216.91
2022-08-27T09:16:23.141Z,101222.06
2022-08-27T09:18:52.334Z,101215.56
2022-08-27T09:21:38.070Z,101216.09
2022-08-27T09:24:12.242Z,101218.53
2022-08-27T09:26:43.136Z,101211.16
2022-08-27T09:29:21.438Z,101201.78
2022-08-27T09:32:01.233Z,101203.25
2022-08-27T09:34:38.266Z,101202.03
2022-08-27T09:37:12.412Z,101205.47
2022-08-27T09:39:48.784Z,101206.22
2022-08-27T09:42:34.827Z,101209.38
2022-08-27T09:45:02.003Z,101214.41
2022-08-27T09:47:31.955Z,101212.31
2022-08-27T09:50:06.821Z,101205.66
2022-08-27T09:52:45.964Z,101207.25
2022-08-27T09:55:13.882Z,101203.91
2022-08-27T09:57:44.483Z,101205.69
2022-08-27T10:00:18.638Z,101209.47
2022-08-27T10:02:52.990Z,101208.97
2022-08-27T10:05:32.747Z,101200.47
2022-08-27T10:08:04.784Z,101200.66
2022-08-27T10:10:49.390Z,101200.00
2022-08-27T10:13:24.116Z,101192.09
2022-08-27T10:15:56.763Z,101196.69
2022-08-27T10:18:49.422Z,101194.19
2022-08-27T10:21:33.991Z,101195.34
2022-08-27T10:24:15.143Z,101197.66
2022-08-27T10:27:04.667Z,101194.25
2022-08-27T10:29:52.801Z,101194.94
2022-08-27T10:32:52.267Z,101194.13
2022-08-27T10:35:27.081Z,101193.38
2022-08-27T10:38:07.788Z,101188.97
2022-08-27T10:40:42.682Z,101188.41
2022-08-27T10:43:18.214Z,101192.75
2022-08-27T10:45:44.905Z,101195.94
2022-08-27T10:48:39.880Z,101186.66
2022-08-27T10:51:24.818Z,101192.31
2022-08-27T10:53:56.581Z,101193.03
2022-08-27T10:56:31.287Z,101195.03
2022-08-27T10:59:09.891Z,101196.63
2022-08-27T11:01:42.202Z,101201.16
2022-08-27T11:04:25.419Z,101195.72
2022-08-27T11:06:57.956Z,101194.31
2022-08-27T11:10:03.194Z,101194.47
2022-08-27T11:12:37.081Z,101202.06
2022-08-27T11:15:13.314Z,101185.47
2022-08-27T11:17:45.955Z,101188.59
2022-08-27T11:20:15.875Z,101194.03
2022-08-27T11:22:49.135Z,101188.59
2022-08-27T11:25:33.738Z,101190.34
2022-08-27T11:28:01.983Z,101193.06
2022-08-27T11:31:09.238Z,101187.19
2022-08-27T11:33:46.196Z,101194.31
2022-08-27T11:36:54.502Z,101193.19
2022-08-27T11:39:42.989Z,101197.75
2022-08-27T11:42:42.804Z,101199.47
2022-08-27T11:45:30.963Z,101189.59
2022-08-27T11:47:59.823Z,101189.59
2022-08-27T11:50:28.722Z,101195.19
2022-08-27T11:53:00.750Z,101193.03
2022-08-27T11:55:36.768Z,101194.16
2022-08-27T11:58:18.724Z,101185.81
2022-08-27T12:00:48.273Z,101181.09
2022-08-27T12:03:37.060Z,101181.25
2022-08-27T12:06:20.568Z,101175.66
2022-08-27T12:08:47.669Z,101184.09
2022-08-27T12:11:27.521Z,101177.59
2022-08-27T12:14:13.198Z,101180.41
2022-08-27T12:16:54.389Z,101174.69
2022-08-27T12:19:34.477Z,101168.97
2022-08-27T12:22:22.174Z,101174.97
2022-08-27T12:24:55.540Z,101173.81
2022-08-27T12:27:24.459Z,101176.81
2022-08-27T12:30:18.769Z,101169.75
2022-08-27T12:32:47.053Z,101164.84
2022-08-27T12:35:27.019Z,101163.69
2022-08-27T12:38:25.823Z,101159.09
2022-08-27T12:40:55.163Z,101164.25
2022-08-27T12:43:29.474Z,101161.91
2022-08-27T12:46:04.709Z,101152.47
2022-08-27T12:48:36.770Z,101155.88
2022-08-27T12:51:12.564Z,101150.97
2022-08-27T12:53:53.570Z,101152.69
2022-08-27T12:56:20.300Z,101149.09
2022-08-27T12:59:00.492Z,101151.81
2022-08-27T13:01:43.172Z,101151.81
2022-08-27T13:04:25.867Z,101148.41
2022-08-27T13:06:52.655Z,101150.13
2022-08-27T13:09:34.251Z,101146.69
2022-08-27T13:12:03.711Z,101150.72
2022-08-27T13:14:39.311Z,101141.88
2022-08-27T13:17:16.641Z,101149.03
2022-08-27T13:19:50.923Z,101151.03
2022-08-27T13:22:26.862Z,101147.31
2022-08-27T13:24:55.935Z,101145.28
2022-08-27T13:27:33.382Z,101141.41
2022-08-27T13:30:06.525Z,101149.41
2022-08-27T13:32:33.819Z,101150.41
2022-08-27T13:35:01.788Z,101144.59
2022-08-27T13:37:34.865Z,101146.78
2022-08-27T13:40:01.752Z,101149.31
2022-08-27T13:42:28.833Z,101138.44
2022-08-27T13:45:02.632Z,101136.75
2022-08-27T13:47:39.906Z,101135.00
2022-08-27T13:50:13.733Z,101144.34
2022-08-27T13:53:01.757Z,101141.31
2022-08-27T13:55:31.087Z,101143.56
2022-08-27T13:58:00.436Z,101147.16
2022-08-27T14:00:33.103Z,101145.28
2022-08-27T14:03:03.516Z,101143.56
2022-08-27T14:05:34.016Z,101147.06
2022-08-27T14:08:11.259Z,101143.69
2022-08-27T14:10:45.098Z,101148.50
2022-08-27T14:13:17.569Z,101146.63
2022-08-27T14:15:47.878Z,101142.66
2022-08-27T14:18:54.878Z,101140.63
2022-08-27T14:21:17.034Z,101150.50
2022-08-27T14:23:43.727Z,101145.38
2022-08-27T14:26:10.586Z,101146.66
2022-08-27T14:28:37.770Z,101147.13
2022-08-27T14:31:04.841Z,101142.16
2022-08-27T14:33:31.574Z,101144.44
2022-08-27T14:35:58.234Z,101153.03
2022-08-27T14:38:26.874Z,101142.81
2022-08-27T14:40:54.645Z,101151.81
2022-08-27T14:43:22.922Z,101148.78
2022-08-27T14:45:52.106Z,101152.66
2022-08-27T14:48:35.072Z,101149.22
2022-08-27T14:51:10.624Z,101150.22
2022-08-27T14:53:37.311Z,101149.50
2022-08-27T14:56:04.247Z,101150.38
2022-08-27T14:58:30.911Z,101157.25
2022-08-27T15:00:58.024Z,101157.81
2022-08-27T15:03:25.658Z,101149.63
2022-08-27T15:05:56.385Z,101146.63
2022-08-27T15:08:29.007Z,101156.97
2022-08-27T15:10:58.021Z,101150.50
2022-08-27T15:13:24.698Z,101145.78
2022-08-27T15:15:52.153Z,101145.94
2022-08-27T15:18:19.489Z,101137.38
2022-08-27T15:20:46.215Z,101140.97
2022-08-27T15:23:14.508Z,101143.44
2022-08-27T15:25:42.502Z,101144.19
2022-08-27T15:28:09.511Z,101144.09
2022-08-27T15:30:42.158Z,101141.38
2022-08-27T15:33:08.937Z,101147.84
2022-08-27T15:35:35.644Z,101154.00
2022-08-27T15:38:05.542Z,101156.28
2022-08-27T15:40:35.717Z,101145.97
2022-08-27T15:43:10.431Z,101151.97
2022-08-27T15:45:39.873Z,101152.53
2022-08-27T15:48:07.268Z,101154.41
2022-08-27T15:50:34.494Z,101144.56
2022-08-27T15:53:10.105Z,101147.13
2022-08-27T15:55:40.378Z,101147.13
2022-08-27T15:58:09.496Z,101141.69
2022-08-27T16:00:38.110Z,101141.69
2022-08-27T16:03:08.419Z,101136.56
2022-08-27T16:05:40.222Z,101131.53
2022-08-27T16:08:07.178Z,101137.28
2022-08-27T16:10:34.489Z,101140.44
2022-08-27T16:13:01.451Z,101135.44
2022-08-27T16:15:30.635Z,101142.31
2022-08-27T16:18:06.708Z,101138.16
2022-08-27T16:20:39.594Z,101143.03
2022-08-27T16:23:09.793Z,101139.75
2022-08-27T16:25:36.474Z,101143.72
2022-08-27T16:28:03.386Z,101146.03
2022-08-27T16:30:32.849Z,101141.72
2022-08-27T16:33:15.483Z,101140.75
2022-08-27T16:35:42.757Z,101146.28
2022-08-27T16:38:10.449Z,101147.44
2022-08-27T16:43:28.692Z,101134.13
2022-08-27T16:46:01.327Z,101142.56
2022-08-27T16:48:47.541Z,101141.09
2022-08-27T16:51:35.888Z,101137.97
2022-08-27T16:54:05.050Z,101138.97
2022-08-27T16:56:37.813Z,101142.94
2022-08-27T16:59:11.130Z,101141.78
2022-08-27T17:01:40.268Z,101143.06
2022-08-27T17:04:23.721Z,101135.94
2022-08-27T17:06:58.455Z,101137.94
2022-08-27T17:09:26.201Z,101132.78
2022-08-27T17:11:57.405Z,101135.78
2022-08-27T17:14:26.678Z,101142.47
2022-08-27T17:16:54.201Z,101133.63
2022-08-27T17:19:26.338Z,101139.34
2022-08-27T17:21:55.382Z,101131.59
2022-08-27T17:24:23.541Z,101138.16
2022-08-27T17:26:51.528Z,101130.44
2022-08-27T17:29:19.830Z,101132.44
2022-08-27T17:31:46.587Z,101133.41
2022-08-27T17:34:19.555Z,101137.28
2022-08-27T17:36:46.359Z,101141.13
2022-08-27T17:39:14.307Z,101141.28
2022-08-27T17:41:44.043Z,101140.78
2022-08-27T17:44:25.704Z,101134.91
2022-08-27T17:46:55.307Z,101134.59
2022-08-27T17:49:23.637Z,101141.16
2022-08-27T17:51:55.341Z,101143.38
2022-08-27T17:54:47.999Z,101140.09
2022-08-27T17:57:26.988Z,101142.38
2022-08-27T18:00:04.650Z,101145.47
2022-08-27T18:02:58.221Z,101144.00
2022-08-27T18:05:30.584Z,101139.00
2022-08-27T18:07:57.845Z,101150.13
2022-08-27T18:10:26.581Z,101146.06
2022-08-27T18:12:56.310Z,101142.66
2022-08-27T18:15:28.159Z,101141.06
2022-08-27T18:18:00.074Z,101152.06
2022-08-27T18:20:29.934Z,101149.34
2022-08-27T18:22:56.845Z,101154.75
2022-08-27T18:25:27.434Z,101151.47
2022-08-27T18:27:58.145Z,101149.88
2022-08-27T18:30:25.337Z,101159.00
2022-08-27T18:32:52.481Z,101158.50
2022-08-27T18:35:26.555Z,101156.78
2022-08-27T18:37:54.101Z,101157.88
2022-08-27T18:40:22.859Z,101158.75
2022-08-27T18:42:51.432Z,101160.75
2022-08-27T18:45:23.938Z,101153.00
2022-08-27T18:47:52.426Z,101162.09
2022-08-27T18:50:20.111Z,101165.94
2022-08-27T18:52:49.706Z,101158.91
2022-08-27T18:55:20.535Z,101160.31
2022-08-27T18:57:47.549Z,101170.56
2022-08-27T19:00:16.495Z,101174.78
2022-08-27T19:02:43.378Z,101174.16
2022-08-27T19:05:11.430Z,101179.59
2022-08-27T19:07:38.438Z,101187.72
2022-08-27T19:10:08.869Z,101185.84
2022-08-27T19:12:37.406Z,101177.00
2022-08-27T19:15:04.385Z,101190.66
2022-08-27T19:17:34.833Z,101169.53
2022-08-27T19:20:02.615Z,101173.47
2022-08-27T19:22:31.232Z,101174.84
2022-08-27T19:24:58.908Z,101166.25
2022-08-27T19:27:27.808Z,101176.47
2022-08-27T19:29:54.613Z,101171.31
2022-08-27T19:32:21.449Z,101173.28
2022-08-27T19:34:57.422Z,101170.13
2022-08-27T19:37:27.931Z,101167.63
2022-08-27T19:39:55.567Z,101165.16
2022-08-27T19:42:25.810Z,101165.41
2022-08-27T19:44:52.748Z,101160.88
2022-08-27T19:47:28.032Z,101166.41
2022-08-27T19:49:56.430Z,101160.25
2022-08-27T19:52:23.978Z,101165.06
2022-08-27T19:55:12.597Z,101168.88
2022-08-27T19:57:37.761Z,101176.25
2022-08-27T20:00:09.380Z,101172.06
2022-08-27T20:02:36.210Z,101186.59
2022-08-27T20:05:17.379Z,101176.00
2022-08-27T20:07:45.750Z,101178.25
2022-08-27T20:10:12.737Z,101175.78
2022-08-27T20:12:39.569Z,101178.72
2022-08-27T20:15:07.156Z,101177.75
2022-08-27T20:17:35.138Z,101176.13
2022-08-27T20:20:01.959Z,101179.13
2022-08-27T20:22:28.616Z,101179.22
2022-08-27T20:24:55.466Z,101186.59
2022-08-27T20:27:22.204Z,101185.63
2022-08-27T20:29:49.124Z,101191.03
2022-08-27T20:32:16.387Z,101197.53
2022-08-27T20:34:45.912Z,101195.31
2022-08-27T20:37:12.732Z,101203.56
2022-08-27T20:39:40.314Z,101203.66
2022-08-27T20:42:07.098Z,101209.19
2022-08-27T20:44:34.030Z,101206.59
2022-08-27T20:47:02.224Z,101198.88
2022-08-27T20:49:29.850Z,101197.50
2022-08-27T20:52:01.953Z,101197.88
2022-08-27T20:54:30.539Z,101195.63
2022-08-27T20:56:58.366Z,101215.91
2022-08-27T20:59:49.530Z,101216.22
2022-08-27T21:02:21.785Z,101212.81
2022-08-27T21:04:49.255Z,101218.06
2022-08-27T21:07:17.706Z,101213.53
2022-08-27T21:09:55.962Z,101220.44
2022-08-27T21:12:31.105Z,101236.88
2022-08-27T21:14:58.190Z,101257.47
2022-08-27T21:17:27.076Z,101272.13
2022-08-27T21:19:54.810Z,101282.91
2022-08-27T21:22:22.760Z,101292.88
2022-08-27T21:24:49.536Z,101297.16
2022-08-27T21:27:18.379Z,101293.84
2022-08-27T21:29:45.818Z,101294.94
2022-08-27T21:32:13.362Z,101293.66
2022-08-27T21:34:41.787Z,101282.78
2022-08-27T21:37:11.040Z,101284.22
2022-08-27T21:39:39.221Z,101279.69
2022-08-27T21:42:06.323Z,101282.25
2022-08-27T21:44:33.046Z,101275.34
2022-08-27T21:47:01.747Z,101279.03
2022-08-27T21:49:28.535Z,101274.38
2022-08-27T21:51:55.482Z,101265.22
2022-08-27T21:54:23.449Z,101260.63
2022-08-27T21:56:53.357Z,101262.44
2022-08-27T21:59:20.309Z,101261.47
2022-08-27T22:01:47.131Z,101261.66
2022-08-27T22:04:13.899Z,101259.75
2022-08-27T22:06:42.758Z,101267.47
2022-08-27T22:09:09.851Z,101259.59
2022-08-27T22:11:36.594Z,101257.69
2022-08-27T22:14:03.509Z,101259.19
2022-08-27T22:16:30.373Z,101251.09
2022-08-27T22:18:57.226Z,101252.28
2022-08-27T22:21:24.497Z,101257.69
2022-08-27T22:23:52.404Z,101253.47
2022-08-27T22:26:22.112Z,101250.88
2022-08-27T22:28:48.801Z,101253.56
2022-08-27T22:31:18.260Z,101248.19
2022-08-27T22:33:45.057Z,101253.56
2022-08-27T22:36:11.777Z,101250.88
2022-08-27T22:38:38.454Z,101240.09
2022-08-27T22:41:05.473Z,101236.44
2022-08-27T22:43:32.390Z,101237.41
2022-08-27T22:45:59.072Z,101234.84
2022-08-27T22:48:25.811Z,101233.09
2022-08-27T22:50:52.463Z,101230.41
2022-08-27T22:53:19.183Z,101226.97
2022-08-27T22:55:50.024Z,101228.91
2022-08-27T22:58:17.931Z,101234.28
2022-08-27T23:00:52.232Z,101232.88
2022-08-27T23:03:19.718Z,101234.81
2022-08-27T23:05:46.691Z,101241.06
2022-08-27T23:08:14.062Z,101234.91
2022-08-27T23:10:42.634Z,101228.78
2022-08-27T23:13:09.832Z,101227.28
2022-08-27T23:15:37.616Z,101230.28
2022-08-27T23:18:04.625Z,101232.31
2022-08-27T23:20:31.306Z,101228.13
2022-08-27T23:22:58.173Z,101228.34
2022-08-27T23:25:44.348Z,101229.41
2022-08-27T23:28:15.209Z,101223.28
2022-08-27T23:30:43.931Z,101226.84
2022-08-27T23:33:12.940Z,101217.25
2022-08-27T23:35:41.301Z,101222.06
2022-08-27T23:38:07.993Z,101219.69
2022-08-27T23:40:34.760Z,101220.13
2022-08-27T23:43:01.493Z,101226.75
2022-08-27T23:45:30.261Z,101220.53
2022-08-27T23:47:56.983Z,101219.66
2022-08-27T23:50:24.710Z,101221.50
2022-08-27T23:53:01.857Z,101216.78
2022-08-27T23:55:28.904Z,101211.31
2022-08-27T23:57:57.793Z,101211.50
